sensor_id;sensor_type;location;lat;lon;timestamp;temperature;humidity
25208;DHT22;13153;52.316;21.166;2023-08-20T00:01:07;23.00;1.00
25208;DHT22;13153;52.316;21.166;2023-08-20T00:03:39;22.90;1.00
25208;DHT22;13153;52.316;21.166;2023-08-20T00:06:06;22.90;1.00
25208;DHT22;13153;52.316;21.166;2023-08-20T00:08:32;22.90;1.00
25208;DHT22;13153;52.316;21.166;2023-08-20T00:10:57;22.90;1.00
25208;DHT22;13153;52.316;21.166;2023-08-20T00:13:23;22.90;1.00
25208;DHT22;13153;52.316;21.166;2023-08-20T00:15:49;22.90;1.00
25208;DHT22;13153;52.316;21.166;2023-08-20T00:18:15;22.90;1.00
25208;DHT22;13153;52.316;21.166;2023-08-20T00:20:41;22.90;1.00
25208;DHT22;13153;52.316;21.166;2023-08-20T00:23:08;22.90;1.00
25208;DHT22;13153;52.316;21.166;2023-08-20T00:25:34;23.00;1.00
25208;DHT22;13153;52.316;21.166;2023-08-20T00:28:00;22.90;1.00
25208;DHT22;13153;52.316;21.166;2023-08-20T00:30:26;22.90;1.00
25208;DHT22;13153;52.316;21.166;2023-08-20T00:32:52;22.80;1.00
25208;DHT22;13153;52.316;21.166;2023-08-20T00:35:18;22.80;1.00
25208;DHT22;13153;52.316;21.166;2023-08-20T00:37:43;22.80;1.00
25208;DHT22;13153;52.316;21.166;2023-08-20T00:40:10;22.80;1.00
25208;DHT22;13153;52.316;21.166;2023-08-20T00:42:37;22.80;1.00
25208;DHT22;13153;52.316;21.166;2023-08-20T00:45:04;22.70;1.00
25208;DHT22;13153;52.316;21.166;2023-08-20T00:47:30;22.70;1.00
25208;DHT22;13153;52.316;21.166;2023-08-20T00:49:56;22.60;1.00
25208;DHT22;13153;52.316;21.166;2023-08-20T00:52:22;22.60;1.00
25208;DHT22;13153;52.316;21.166;2023-08-20T00:54:50;22.60;1.00
25208;DHT22;13153;52.316;21.166;2023-08-20T00:57:18;22.70;1.00
25208;DHT22;13153;52.316;21.166;2023-08-20T00:59:48;22.60;1.00
25208;DHT22;13153;52.316;21.166;2023-08-20T01:02:16;22.60;1.00
25208;DHT22;13153;52.316;21.166;2023-08-20T01:04:43;22.70;1.00
25208;DHT22;13153;52.316;21.166;2023-08-20T01:12:31;22.60;1.00
25208;DHT22;13153;52.316;21.166;2023-08-20T01:15:00;22.50;1.00
25208;DHT22;13153;52.316;21.166;2023-08-20T01:17:25;22.50;1.00
25208;DHT22;13153;52.316;21.166;2023-08-20T01:19:51;22.50;1.00
25208;DHT22;13153;52.316;21.166;2023-08-20T01:22:35;22.50;1.00
25208;DHT22;13153;52.316;21.166;2023-08-20T01:26:20;22.60;1.00
25208;DHT22;13153;52.316;21.166;2023-08-20T01:28:56;22.60;1.00
25208;DHT22;13153;52.316;21.166;2023-08-20T01:31:22;22.60;1.00
25208;DHT22;13153;52.316;21.166;2023-08-20T01:33:51;22.50;1.00
25208;DHT22;13153;52.316;21.166;2023-08-20T01:36:18;22.50;1.00
25208;DHT22;13153;52.316;21.166;2023-08-20T01:38:43;22.40;1.00
25208;DHT22;13153;52.316;21.166;2023-08-20T01:41:09;22.40;1.00
25208;DHT22;13153;52.316;21.166;2023-08-20T01:43:35;22.40;1.00
25208;DHT22;13153;52.316;21.166;2023-08-20T01:46:01;22.40;1.00
25208;DHT22;13153;52.316;21.166;2023-08-20T01:48:26;22.40;1.00
25208;DHT22;13153;52.316;21.166;2023-08-20T01:50:52;22.40;1.00
25208;DHT22;13153;52.316;21.166;2023-08-20T01:53:18;22.40;1.00
25208;DHT22;13153;52.316;21.166;2023-08-20T01:55:44;22.30;1.00
25208;DHT22;13153;52.316;21.166;2023-08-20T01:58:09;22.30;1.00
25208;DHT22;13153;52.316;21.166;2023-08-20T02:00:35;22.30;1.00
25208;DHT22;13153;52.316;21.166;2023-08-20T02:03:01;22.30;1.00
25208;DHT22;13153;52.316;21.166;2023-08-20T02:05:27;22.30;1.00
25208;DHT22;13153;52.316;21.166;2023-08-20T02:07:54;22.30;1.00
25208;DHT22;13153;52.316;21.166;2023-08-20T02:10:19;22.20;1.00
25208;DHT22;13153;52.316;21.166;2023-08-20T02:12:46;22.20;1.00
25208;DHT22;13153;52.316;21.166;2023-08-20T02:15:12;22.20;1.00
25208;DHT22;13153;52.316;21.166;2023-08-20T02:17:38;22.10;1.00
25208;DHT22;13153;52.316;21.166;2023-08-20T02:20:04;22.20;1.00
25208;DHT22;13153;52.316;21.166;2023-08-20T02:22:30;22.10;1.00
25208;DHT22;13153;52.316;21.166;2023-08-20T02:24:56;22.10;1.00
25208;DHT22;13153;52.316;21.166;2023-08-20T02:27:22;22.10;1.00
25208;DHT22;13153;52.316;21.166;2023-08-20T02:29:48;22.10;1.00
25208;DHT22;13153;52.316;21.166;2023-08-20T02:32:14;22.10;1.00
25208;DHT22;13153;52.316;21.166;2023-08-20T02:34:40;22.00;1.00
25208;DHT22;13153;52.316;21.166;2023-08-20T02:37:05;21.90;1.00
25208;DHT22;13153;52.316;21.166;2023-08-20T02:39:32;21.90;1.00
25208;DHT22;13153;52.316;21.166;2023-08-20T02:41:58;21.80;1.00
25208;DHT22;13153;52.316;21.166;2023-08-20T02:44:23;21.80;1.00
25208;DHT22;13153;52.316;21.166;2023-08-20T02:46:49;21.70;1.00
25208;DHT22;13153;52.316;21.166;2023-08-20T02:49:15;21.70;1.00
25208;DHT22;13153;52.316;21.166;2023-08-20T02:51:43;21.70;1.00
25208;DHT22;13153;52.316;21.166;2023-08-20T02:54:09;21.80;1.00
25208;DHT22;13153;52.316;21.166;2023-08-20T02:56:34;21.70;1.00
25208;DHT22;13153;52.316;21.166;2023-08-20T02:59:00;21.70;1.00
25208;DHT22;13153;52.316;21.166;2023-08-20T03:01:27;21.80;1.00
25208;DHT22;13153;52.316;21.166;2023-08-20T03:03:53;21.80;1.00
25208;DHT22;13153;52.316;21.166;2023-08-20T03:06:19;21.70;1.00
25208;DHT22;13153;52.316;21.166;2023-08-20T03:08:45;21.70;1.00
25208;DHT22;13153;52.316;21.166;2023-08-20T03:11:11;21.70;1.00
25208;DHT22;13153;52.316;21.166;2023-08-20T03:13:37;21.60;1.00
25208;DHT22;13153;52.316;21.166;2023-08-20T03:16:03;21.60;1.00
25208;DHT22;13153;52.316;21.166;2023-08-20T03:18:29;21.70;1.00
25208;DHT22;13153;52.316;21.166;2023-08-20T03:20:55;21.70;1.00
25208;DHT22;13153;52.316;21.166;2023-08-20T03:23:22;21.70;1.00
25208;DHT22;13153;52.316;21.166;2023-08-20T03:25:51;21.80;1.00
25208;DHT22;13153;52.316;21.166;2023-08-20T03:28:18;21.80;1.00
25208;DHT22;13153;52.316;21.166;2023-08-20T03:30:44;21.80;1.00
25208;DHT22;13153;52.316;21.166;2023-08-20T03:33:10;21.80;1.00
25208;DHT22;13153;52.316;21.166;2023-08-20T03:35:36;21.80;1.00
25208;DHT22;13153;52.316;21.166;2023-08-20T03:38:02;21.80;1.00
25208;DHT22;13153;52.316;21.166;2023-08-20T03:40:28;21.80;1.00
25208;DHT22;13153;52.316;21.166;2023-08-20T03:42:54;21.70;1.00
25208;DHT22;13153;52.316;21.166;2023-08-20T03:45:20;21.70;1.00
25208;DHT22;13153;52.316;21.166;2023-08-20T03:47:45;21.80;1.00
25208;DHT22;13153;52.316;21.166;2023-08-20T03:50:12;21.80;1.00
25208;DHT22;13153;52.316;21.166;2023-08-20T03:52:38;21.90;1.00
25208;DHT22;13153;52.316;21.166;2023-08-20T03:55:05;22.00;1.00
25208;DHT22;13153;52.316;21.166;2023-08-20T03:57:31;22.10;1.00
25208;DHT22;13153;52.316;21.166;2023-08-20T03:59:57;22.20;1.00
25208;DHT22;13153;52.316;21.166;2023-08-20T04:02:23;22.30;99.90
25208;DHT22;13153;52.316;21.166;2023-08-20T04:04:49;22.40;99.90
25208;DHT22;13153;52.316;21.166;2023-08-20T04:07:15;22.50;99.90
25208;DHT22;13153;52.316;21.166;2023-08-20T04:09:41;22.70;99.90
25208;DHT22;13153;52.316;21.166;2023-08-20T04:12:08;22.80;99.90
25208;DHT22;13153;52.316;21.166;2023-08-20T04:14:34;22.90;99.90
25208;DHT22;13153;52.316;21.166;2023-08-20T04:17:00;23.00;99.90
25208;DHT22;13153;52.316;21.166;2023-08-20T04:19:25;23.10;68.60
25208;DHT22;13153;52.316;21.166;2023-08-20T04:21:51;23.20;1.00
25208;DHT22;13153;52.316;21.166;2023-08-20T04:24:17;23.40;1.00
25208;DHT22;13153;52.316;21.166;2023-08-20T04:26:43;23.60;1.00
25208;DHT22;13153;52.316;21.166;2023-08-20T04:29:09;23.80;1.00
25208;DHT22;13153;52.316;21.166;2023-08-20T04:31:35;24.00;1.00
25208;DHT22;13153;52.316;21.166;2023-08-20T04:34:01;24.20;1.00
25208;DHT22;13153;52.316;21.166;2023-08-20T04:36:26;24.40;99.90
25208;DHT22;13153;52.316;21.166;2023-08-20T04:38:52;24.60;99.90
25208;DHT22;13153;52.316;21.166;2023-08-20T04:41:18;24.70;11.50
25208;DHT22;13153;52.316;21.166;2023-08-20T04:43:44;24.80;1.00
25208;DHT22;13153;52.316;21.166;2023-08-20T04:46:09;24.80;1.00
25208;DHT22;13153;52.316;21.166;2023-08-20T04:48:35;25.00;1.00
25208;DHT22;13153;52.316;21.166;2023-08-20T04:51:01;25.10;1.00
25208;DHT22;13153;52.316;21.166;2023-08-20T04:53:27;25.20;1.00
25208;DHT22;13153;52.316;21.166;2023-08-20T04:55:52;25.20;1.00
25208;DHT22;13153;52.316;21.166;2023-08-20T04:58:18;25.40;99.90
25208;DHT22;13153;52.316;21.166;2023-08-20T05:00:44;25.60;99.90
25208;DHT22;13153;52.316;21.166;2023-08-20T05:03:09;25.80;1.00
25208;DHT22;13153;52.316;21.166;2023-08-20T05:05:35;26.00;99.90
25208;DHT22;13153;52.316;21.166;2023-08-20T05:08:01;26.40;1.00
25208;DHT22;13153;52.316;21.166;2023-08-20T05:10:27;26.70;1.00
25208;DHT22;13153;52.316;21.166;2023-08-20T05:12:52;27.10;99.90
25208;DHT22;13153;52.316;21.166;2023-08-20T05:15:18;27.40;1.00
25208;DHT22;13153;52.316;21.166;2023-08-20T05:17:44;27.70;99.90
25208;DHT22;13153;52.316;21.166;2023-08-20T05:20:10;28.00;99.90
25208;DHT22;13153;52.316;21.166;2023-08-20T05:22:36;28.30;99.90
25208;DHT22;13153;52.316;21.166;2023-08-20T05:25:02;28.50;1.00
25208;DHT22;13153;52.316;21.166;2023-08-20T05:27:28;28.80;1.00
25208;DHT22;13153;52.316;21.166;2023-08-20T05:29:53;29.20;1.00
25208;DHT22;13153;52.316;21.166;2023-08-20T05:32:19;29.60;1.00
25208;DHT22;13153;52.316;21.166;2023-08-20T05:34:45;30.00;99.90
25208;DHT22;13153;52.316;21.166;2023-08-20T05:37:11;30.40;1.00
25208;DHT22;13153;52.316;21.166;2023-08-20T05:39:40;30.90;99.90
25208;DHT22;13153;52.316;21.166;2023-08-20T05:42:07;31.40;1.00
25208;DHT22;13153;52.316;21.166;2023-08-20T05:44:33;31.90;99.90
25208;DHT22;13153;52.316;21.166;2023-08-20T05:46:59;32.30;99.90
25208;DHT22;13153;52.316;21.166;2023-08-20T05:49:26;32.80;99.90
25208;DHT22;13153;52.316;21.166;2023-08-20T05:51:52;33.30;99.90
25208;DHT22;13153;52.316;21.166;2023-08-20T05:54:19;33.70;99.90
25208;DHT22;13153;52.316;21.166;2023-08-20T05:56:44;34.20;99.90
25208;DHT22;13153;52.316;21.166;2023-08-20T05:59:10;34.70;1.00
25208;DHT22;13153;52.316;21.166;2023-08-20T06:01:36;35.00;99.90
25208;DHT22;13153;52.316;21.166;2023-08-20T06:04:02;35.20;93.00
25208;DHT22;13153;52.316;21.166;2023-08-20T06:06:28;35.50;99.00
25208;DHT22;13153;52.316;21.166;2023-08-20T06:08:54;35.80;99.10
25208;DHT22;13153;52.316;21.166;2023-08-20T06:11:20;36.10;99.20
25208;DHT22;13153;52.316;21.166;2023-08-20T06:13:46;36.40;98.00
25208;DHT22;13153;52.316;21.166;2023-08-20T06:16:12;36.60;96.20
25208;DHT22;13153;52.316;21.166;2023-08-20T06:18:38;36.80;96.20
25208;DHT22;13153;52.316;21.166;2023-08-20T06:21:04;37.00;95.00
25208;DHT22;13153;52.316;21.166;2023-08-20T06:23:29;37.20;99.90
25208;DHT22;13153;52.316;21.166;2023-08-20T06:25:55;37.30;99.90
25208;DHT22;13153;52.316;21.166;2023-08-20T06:28:21;37.30;99.90
25208;DHT22;13153;52.316;21.166;2023-08-20T06:30:47;37.30;99.90
25208;DHT22;13153;52.316;21.166;2023-08-20T06:33:13;37.10;99.90
25208;DHT22;13153;52.316;21.166;2023-08-20T06:35:39;37.10;99.90
25208;DHT22;13153;52.316;21.166;2023-08-20T06:38:07;37.00;99.90
25208;DHT22;13153;52.316;21.166;2023-08-20T06:40:33;36.80;99.90
25208;DHT22;13153;52.316;21.166;2023-08-20T06:42:59;36.50;99.90
25208;DHT22;13153;52.316;21.166;2023-08-20T06:45:25;36.30;99.90
25208;DHT22;13153;52.316;21.166;2023-08-20T06:47:50;36.10;99.90
25208;DHT22;13153;52.316;21.166;2023-08-20T06:50:16;36.00;99.90
25208;DHT22;13153;52.316;21.166;2023-08-20T06:52:43;35.90;99.90
25208;DHT22;13153;52.316;21.166;2023-08-20T06:55:08;35.90;99.90
25208;DHT22;13153;52.316;21.166;2023-08-20T06:57:34;35.90;99.90
25208;DHT22;13153;52.316;21.166;2023-08-20T07:00:00;36.00;99.90
25208;DHT22;13153;52.316;21.166;2023-08-20T07:02:26;35.90;99.90
25208;DHT22;13153;52.316;21.166;2023-08-20T07:04:51;35.90;99.90
25208;DHT22;13153;52.316;21.166;2023-08-20T07:07:17;35.80;99.90
25208;DHT22;13153;52.316;21.166;2023-08-20T07:09:43;35.70;99.90
25208;DHT22;13153;52.316;21.166;2023-08-20T07:12:09;35.70;99.90
25208;DHT22;13153;52.316;21.166;2023-08-20T07:14:34;35.60;99.90
25208;DHT22;13153;52.316;21.166;2023-08-20T07:17:00;35.50;99.90
25208;DHT22;13153;52.316;21.166;2023-08-20T07:19:28;35.50;99.90
25208;DHT22;13153;52.316;21.166;2023-08-20T07:21:54;35.50;1.00
25208;DHT22;13153;52.316;21.166;2023-08-20T07:24:20;35.40;99.90
25208;DHT22;13153;52.316;21.166;2023-08-20T07:26:53;35.30;99.90
25208;DHT22;13153;52.316;21.166;2023-08-20T07:29:24;35.20;1.00
25208;DHT22;13153;52.316;21.166;2023-08-20T07:31:51;35.00;99.90
25208;DHT22;13153;52.316;21.166;2023-08-20T07:34:16;34.60;1.00
25208;DHT22;13153;52.316;21.166;2023-08-20T07:36:42;34.40;99.90
25208;DHT22;13153;52.316;21.166;2023-08-20T07:39:08;34.20;99.90
25208;DHT22;13153;52.316;21.166;2023-08-20T07:41:34;34.00;21.50
25208;DHT22;13153;52.316;21.166;2023-08-20T07:44:00;33.80;99.90
25208;DHT22;13153;52.316;21.166;2023-08-20T07:46:25;33.70;99.90
25208;DHT22;13153;52.316;21.166;2023-08-20T07:48:52;33.50;1.00
25208;DHT22;13153;52.316;21.166;2023-08-20T07:51:17;33.30;1.00
25208;DHT22;13153;52.316;21.166;2023-08-20T07:53:43;33.00;1.00
25208;DHT22;13153;52.316;21.166;2023-08-20T07:56:09;32.70;1.00
25208;DHT22;13153;52.316;21.166;2023-08-20T07:58:35;32.50;1.00
25208;DHT22;13153;52.316;21.166;2023-08-20T08:01:01;32.20;1.00
25208;DHT22;13153;52.316;21.166;2023-08-20T08:03:27;32.00;1.00
25208;DHT22;13153;52.316;21.166;2023-08-20T08:05:53;31.90;1.00
25208;DHT22;13153;52.316;21.166;2023-08-20T08:08:19;31.80;1.00
25208;DHT22;13153;52.316;21.166;2023-08-20T08:10:45;31.80;1.00
25208;DHT22;13153;52.316;21.166;2023-08-20T08:13:17;31.80;1.00
25208;DHT22;13153;52.316;21.166;2023-08-20T08:15:46;31.70;1.00
25208;DHT22;13153;52.316;21.166;2023-08-20T08:18:12;31.70;1.00
25208;DHT22;13153;52.316;21.166;2023-08-20T08:20:38;31.70;1.00
25208;DHT22;13153;52.316;21.166;2023-08-20T08:23:04;31.60;1.00
25208;DHT22;13153;52.316;21.166;2023-08-20T08:25:30;31.60;1.00
25208;DHT22;13153;52.316;21.166;2023-08-20T08:27:56;31.50;1.00
25208;DHT22;13153;52.316;21.166;2023-08-20T08:30:22;31.40;1.00
25208;DHT22;13153;52.316;21.166;2023-08-20T08:32:48;31.40;1.00
25208;DHT22;13153;52.316;21.166;2023-08-20T08:35:14;31.40;1.00
25208;DHT22;13153;52.316;21.166;2023-08-20T08:37:40;31.40;1.00
25208;DHT22;13153;52.316;21.166;2023-08-20T08:40:06;31.50;1.00
25208;DHT22;13153;52.316;21.166;2023-08-20T08:42:33;31.60;1.00
25208;DHT22;13153;52.316;21.166;2023-08-20T08:45:02;31.70;1.00
25208;DHT22;13153;52.316;21.166;2023-08-20T08:47:29;31.80;1.00
25208;DHT22;13153;52.316;21.166;2023-08-20T08:49:56;31.90;1.00
25208;DHT22;13153;52.316;21.166;2023-08-20T08:52:25;31.90;1.00
25208;DHT22;13153;52.316;21.166;2023-08-20T08:54:52;31.90;1.00
25208;DHT22;13153;52.316;21.166;2023-08-20T08:57:18;31.90;1.00
25208;DHT22;13153;52.316;21.166;2023-08-20T08:59:45;32.00;1.00
25208;DHT22;13153;52.316;21.166;2023-08-20T09:02:12;32.10;1.00
25208;DHT22;13153;52.316;21.166;2023-08-20T09:04:39;32.00;1.00
25208;DHT22;13153;52.316;21.166;2023-08-20T09:07:11;32.00;1.00
25208;DHT22;13153;52.316;21.166;2023-08-20T09:09:42;31.90;1.00
25208;DHT22;13153;52.316;21.166;2023-08-20T09:12:19;31.80;1.00
25208;DHT22;13153;52.316;21.166;2023-08-20T09:14:51;31.80;1.00
25208;DHT22;13153;52.316;21.166;2023-08-20T09:17:17;31.80;1.00
25208;DHT22;13153;52.316;21.166;2023-08-20T09:19:45;31.80;1.00
25208;DHT22;13153;52.316;21.166;2023-08-20T09:22:12;31.90;1.00
25208;DHT22;13153;52.316;21.166;2023-08-20T09:24:46;31.80;1.00
25208;DHT22;13153;52.316;21.166;2023-08-20T09:27:17;31.90;1.00
25208;DHT22;13153;52.316;21.166;2023-08-20T09:29:54;31.90;1.00
25208;DHT22;13153;52.316;21.166;2023-08-20T09:32:25;31.90;1.00
25208;DHT22;13153;52.316;21.166;2023-08-20T09:34:53;31.80;1.00
25208;DHT22;13153;52.316;21.166;2023-08-20T09:37:22;31.70;1.00
25208;DHT22;13153;52.316;21.166;2023-08-20T09:39:49;31.70;1.00
25208;DHT22;13153;52.316;21.166;2023-08-20T09:42:16;31.80;1.00
25208;DHT22;13153;52.316;21.166;2023-08-20T09:44:44;31.70;1.00
25208;DHT22;13153;52.316;21.166;2023-08-20T09:47:14;31.80;1.00
25208;DHT22;13153;52.316;21.166;2023-08-20T09:49:43;31.70;1.00
25208;DHT22;13153;52.316;21.166;2023-08-20T09:52:25;31.80;1.00
25208;DHT22;13153;52.316;21.166;2023-08-20T09:55:13;31.90;1.00
25208;DHT22;13153;52.316;21.166;2023-08-20T09:57:47;31.90;1.00
25208;DHT22;13153;52.316;21.166;2023-08-20T10:00:14;31.80;1.00
25208;DHT22;13153;52.316;21.166;2023-08-20T10:02:43;31.90;1.00
25208;DHT22;13153;52.316;21.166;2023-08-20T10:05:11;32.00;1.00
25208;DHT22;13153;52.316;21.166;2023-08-20T10:07:38;32.00;1.00
25208;DHT22;13153;52.316;21.166;2023-08-20T10:10:08;32.00;1.00
25208;DHT22;13153;52.316;21.166;2023-08-20T10:12:37;31.90;1.00
25208;DHT22;13153;52.316;21.166;2023-08-20T10:15:05;31.90;1.00
25208;DHT22;13153;52.316;21.166;2023-08-20T10:17:34;32.00;1.00
25208;DHT22;13153;52.316;21.166;2023-08-20T10:20:02;31.90;1.00
25208;DHT22;13153;52.316;21.166;2023-08-20T10:22:40;31.90;1.00
25208;DHT22;13153;52.316;21.166;2023-08-20T10:25:09;31.70;1.00
25208;DHT22;13153;52.316;21.166;2023-08-20T10:27:41;31.60;1.00
25208;DHT22;13153;52.316;21.166;2023-08-20T10:30:17;31.50;1.00
25208;DHT22;13153;52.316;21.166;2023-08-20T10:32:52;31.50;1.00
25208;DHT22;13153;52.316;21.166;2023-08-20T10:35:27;31.40;1.00
25208;DHT22;13153;52.316;21.166;2023-08-20T10:38:06;31.30;1.00
25208;DHT22;13153;52.316;21.166;2023-08-20T10:40:55;31.30;1.00
25208;DHT22;13153;52.316;21.166;2023-08-20T10:43:29;31.40;1.00
25208;DHT22;13153;52.316;21.166;2023-08-20T10:46:22;31.30;1.00
25208;DHT22;13153;52.316;21.166;2023-08-20T10:48:50;31.30;1.00
25208;DHT22;13153;52.316;21.166;2023-08-20T10:51:25;31.30;1.00
25208;DHT22;13153;52.316;21.166;2023-08-20T10:56:46;31.40;1.00
25208;DHT22;13153;52.316;21.166;2023-08-20T10:59:28;31.30;1.00
25208;DHT22;13153;52.316;21.166;2023-08-20T11:01:59;31.30;1.00
25208;DHT22;13153;52.316;21.166;2023-08-20T11:04:29;31.30;1.00
25208;DHT22;13153;52.316;21.166;2023-08-20T11:06:59;31.20;1.00
25208;DHT22;13153;52.316;21.166;2023-08-20T11:09:28;31.10;1.00
25208;DHT22;13153;52.316;21.166;2023-08-20T11:11:55;30.90;1.00
25208;DHT22;13153;52.316;21.166;2023-08-20T11:14:22;30.90;1.00
25208;DHT22;13153;52.316;21.166;2023-08-20T11:16:49;30.70;1.00
25208;DHT22;13153;52.316;21.166;2023-08-20T11:19:23;30.70;1.00
25208;DHT22;13153;52.316;21.166;2023-08-20T11:21:50;30.60;1.00
25208;DHT22;13153;52.316;21.166;2023-08-20T11:24:17;30.60;1.00
25208;DHT22;13153;52.316;21.166;2023-08-20T11:26:45;30.60;1.00
25208;DHT22;13153;52.316;21.166;2023-08-20T11:29:15;30.50;1.00
25208;DHT22;13153;52.316;21.166;2023-08-20T11:31:46;30.50;1.00
25208;DHT22;13153;52.316;21.166;2023-08-20T11:34:13;30.50;1.00
25208;DHT22;13153;52.316;21.166;2023-08-20T11:36:39;30.40;1.00
25208;DHT22;13153;52.316;21.166;2023-08-20T11:39:06;30.40;1.00
25208;DHT22;13153;52.316;21.166;2023-08-20T11:41:36;30.40;1.00
25208;DHT22;13153;52.316;21.166;2023-08-20T11:44:03;30.40;1.00
25208;DHT22;13153;52.316;21.166;2023-08-20T11:46:29;30.40;1.00
25208;DHT22;13153;52.316;21.166;2023-08-20T11:49:06;30.40;1.00
25208;DHT22;13153;52.316;21.166;2023-08-20T11:51:37;30.40;1.00
25208;DHT22;13153;52.316;21.166;2023-08-20T11:54:09;30.40;1.00
25208;DHT22;13153;52.316;21.166;2023-08-20T11:56:50;30.50;1.00
25208;DHT22;13153;52.316;21.166;2023-08-20T11:59:19;30.50;1.00
25208;DHT22;13153;52.316;21.166;2023-08-20T12:02:06;30.60;1.00
25208;DHT22;13153;52.316;21.166;2023-08-20T12:04:32;30.60;1.00
25208;DHT22;13153;52.316;21.166;2023-08-20T12:07:14;30.60;1.00
25208;DHT22;13153;52.316;21.166;2023-08-20T12:09:40;30.60;1.00
25208;DHT22;13153;52.316;21.166;2023-08-20T12:12:07;30.60;1.00
25208;DHT22;13153;52.316;21.166;2023-08-20T12:14:34;30.60;1.00
25208;DHT22;13153;52.316;21.166;2023-08-20T12:17:01;30.60;1.00
25208;DHT22;13153;52.316;21.166;2023-08-20T12:19:28;30.50;1.00
25208;DHT22;13153;52.316;21.166;2023-08-20T12:21:54;30.50;1.00
25208;DHT22;13153;52.316;21.166;2023-08-20T12:24:20;30.50;1.00
25208;DHT22;13153;52.316;21.166;2023-08-20T12:26:46;30.60;1.00
25208;DHT22;13153;52.316;21.166;2023-08-20T12:29:12;30.60;1.00
25208;DHT22;13153;52.316;21.166;2023-08-20T12:31:40;30.50;1.00
25208;DHT22;13153;52.316;21.166;2023-08-20T12:34:07;30.50;1.00
25208;DHT22;13153;52.316;21.166;2023-08-20T12:36:33;30.50;1.00
25208;DHT22;13153;52.316;21.166;2023-08-20T12:38:59;30.50;1.00
25208;DHT22;13153;52.316;21.166;2023-08-20T12:41:25;30.50;1.00
25208;DHT22;13153;52.316;21.166;2023-08-20T12:43:51;30.50;1.00
25208;DHT22;13153;52.316;21.166;2023-08-20T12:46:17;30.50;1.00
25208;DHT22;13153;52.316;21.166;2023-08-20T12:48:45;30.60;1.00
25208;DHT22;13153;52.316;21.166;2023-08-20T12:51:11;30.60;1.00
25208;DHT22;13153;52.316;21.166;2023-08-20T12:53:42;30.50;1.00
25208;DHT22;13153;52.316;21.166;2023-08-20T12:56:08;30.60;1.00
25208;DHT22;13153;52.316;21.166;2023-08-20T12:58:34;30.60;1.00
25208;DHT22;13153;52.316;21.166;2023-08-20T13:01:00;30.70;1.00
25208;DHT22;13153;52.316;21.166;2023-08-20T13:03:26;30.70;1.00
25208;DHT22;13153;52.316;21.166;2023-08-20T13:05:53;30.70;1.00
25208;DHT22;13153;52.316;21.166;2023-08-20T13:08:22;30.60;1.00
25208;DHT22;13153;52.316;21.166;2023-08-20T13:10:53;30.70;1.00
25208;DHT22;13153;52.316;21.166;2023-08-20T13:13:21;30.70;1.00
25208;DHT22;13153;52.316;21.166;2023-08-20T13:15:51;30.60;1.00
25208;DHT22;13153;52.316;21.166;2023-08-20T13:18:19;30.60;1.00
25208;DHT22;13153;52.316;21.166;2023-08-20T13:20:51;30.60;1.00
25208;DHT22;13153;52.316;21.166;2023-08-20T13:23:17;30.50;1.00
25208;DHT22;13153;52.316;21.166;2023-08-20T13:25:43;30.50;1.00
25208;DHT22;13153;52.316;21.166;2023-08-20T13:28:09;30.40;1.00
25208;DHT22;13153;52.316;21.166;2023-08-20T13:30:35;30.40;1.00
25208;DHT22;13153;52.316;21.166;2023-08-20T13:33:01;30.50;1.00
25208;DHT22;13153;52.316;21.166;2023-08-20T13:35:26;30.50;1.00
25208;DHT22;13153;52.316;21.166;2023-08-20T13:37:52;30.50;1.00
25208;DHT22;13153;52.316;21.166;2023-08-20T13:40:18;30.50;1.00
25208;DHT22;13153;52.316;21.166;2023-08-20T13:42:44;30.50;1.00
25208;DHT22;13153;52.316;21.166;2023-08-20T13:45:09;30.50;1.00
25208;DHT22;13153;52.316;21.166;2023-08-20T13:47:35;30.50;1.00
25208;DHT22;13153;52.316;21.166;2023-08-20T13:50:01;30.50;1.00
25208;DHT22;13153;52.316;21.166;2023-08-20T13:52:29;30.50;1.00
25208;DHT22;13153;52.316;21.166;2023-08-20T13:54:55;30.50;1.00
25208;DHT22;13153;52.316;21.166;2023-08-20T13:57:21;30.60;1.00
25208;DHT22;13153;52.316;21.166;2023-08-20T13:59:47;30.60;1.00
25208;DHT22;13153;52.316;21.166;2023-08-20T14:02:13;30.70;1.00
25208;DHT22;13153;52.316;21.166;2023-08-20T14:04:38;30.70;1.00
25208;DHT22;13153;52.316;21.166;2023-08-20T14:07:04;30.70;1.00
25208;DHT22;13153;52.316;21.166;2023-08-20T14:09:30;30.70;1.00
25208;DHT22;13153;52.316;21.166;2023-08-20T14:11:55;30.70;1.00
25208;DHT22;13153;52.316;21.166;2023-08-20T14:14:21;30.60;1.00
25208;DHT22;13153;52.316;21.166;2023-08-20T14:16:47;30.70;1.00
25208;DHT22;13153;52.316;21.166;2023-08-20T14:19:13;30.60;1.00
25208;DHT22;13153;52.316;21.166;2023-08-20T14:21:39;30.60;1.00
25208;DHT22;13153;52.316;21.166;2023-08-20T14:24:05;30.60;1.00
25208;DHT22;13153;52.316;21.166;2023-08-20T14:26:31;30.60;1.00
25208;DHT22;13153;52.316;21.166;2023-08-20T14:28:57;30.60;1.00
25208;DHT22;13153;52.316;21.166;2023-08-20T14:31:22;30.50;1.00
25208;DHT22;13153;52.316;21.166;2023-08-20T14:33:48;30.50;1.00
25208;DHT22;13153;52.316;21.166;2023-08-20T14:36:14;30.50;1.00
25208;DHT22;13153;52.316;21.166;2023-08-20T14:38:40;30.50;1.00
25208;DHT22;13153;52.316;21.166;2023-08-20T14:41:05;30.50;1.00
25208;DHT22;13153;52.316;21.166;2023-08-20T14:43:32;30.50;1.00
25208;DHT22;13153;52.316;21.166;2023-08-20T14:45:58;30.50;1.00
25208;DHT22;13153;52.316;21.166;2023-08-20T14:48:24;30.50;1.00
25208;DHT22;13153;52.316;21.166;2023-08-20T14:50:51;30.50;1.00
25208;DHT22;13153;52.316;21.166;2023-08-20T14:53:17;30.40;1.00
25208;DHT22;13153;52.316;21.166;2023-08-20T14:55:44;30.40;1.00
25208;DHT22;13153;52.316;21.166;2023-08-20T14:58:10;30.40;1.00
25208;DHT22;13153;52.316;21.166;2023-08-20T15:00:36;30.40;1.00
25208;DHT22;13153;52.316;21.166;2023-08-20T15:03:03;30.40;1.00
25208;DHT22;13153;52.316;21.166;2023-08-20T15:05:30;30.40;1.00
25208;DHT22;13153;52.316;21.166;2023-08-20T15:07:56;30.40;1.00
25208;DHT22;13153;52.316;21.166;2023-08-20T15:10:22;30.40;1.00
25208;DHT22;13153;52.316;21.166;2023-08-20T15:12:48;30.40;1.00
25208;DHT22;13153;52.316;21.166;2023-08-20T15:15:13;30.40;1.00
25208;DHT22;13153;52.316;21.166;2023-08-20T15:17:40;30.50;1.00
25208;DHT22;13153;52.316;21.166;2023-08-20T15:20:06;30.40;1.00
25208;DHT22;13153;52.316;21.166;2023-08-20T15:22:38;30.40;1.00
25208;DHT22;13153;52.316;21.166;2023-08-20T15:25:05;30.40;1.00
25208;DHT22;13153;52.316;21.166;2023-08-20T15:27:36;30.40;1.00
25208;DHT22;13153;52.316;21.166;2023-08-20T15:30:03;30.40;1.00
25208;DHT22;13153;52.316;21.166;2023-08-20T15:32:30;30.40;1.00
25208;DHT22;13153;52.316;21.166;2023-08-20T15:34:56;30.40;1.00
25208;DHT22;13153;52.316;21.166;2023-08-20T15:37:22;30.40;1.00